Time;durP1;ratioP1;P1;durP2;ratioP2;P2;SDS_P1;SDS_P2;PMS_P1;PMS_P2;Temp;Humidity;BMP_temperature;BMP_pressure;BME280_temperature;BME280_humidity;BME280_pressure;Samples;Min_cycle;Max_cycle;Signal;HPM_P1;HPM_P2
2022/12/12 00:01:50;;;;;;;31.33;16.20;;;-0.20;1.00;;;;;;6136413;23;20250;-79
2022/12/12 00:04:18;;;;;;;33.97;18.83;;;-0.20;1.00;;;;;;6124562;23;20209;-80
2022/12/12 00:06:46;;;;;;;31.33;17.75;;;-0.30;1.00;;;;;;6084198;23;20216;-80
2022/12/12 00:09:17;;;;;;;31.33;18.45;;;-0.30;1.00;;;;;;6106542;23;20292;-78
2022/12/12 00:11:46;;;;;;;29.13;16.50;;;-0.30;1.00;;;;;;6120083;23;20216;-77
2022/12/12 00:14:27;;;;;;;32.00;18.08;;;-0.30;1.00;;;;;;6123054;23;20221;-80
2022/12/12 00:16:58;;;;;;;31.85;17.50;;;-0.30;1.00;;;;;;6136308;23;20218;-79
2022/12/12 00:19:25;;;;;;;26.52;17.10;;;-0.30;1.00;;;;;;6138266;23;20206;-81
2022/12/12 00:21:52;;;;;;;27.98;15.90;;;-0.30;1.00;;;;;;6135894;23;20217;-81
2022/12/12 00:24:19;;;;;;;28.60;17.35;;;-0.20;1.00;;;;;;6136524;23;20304;-77
2022/12/12 00:26:48;;;;;;;28.33;16.58;;;-0.20;1.00;;;;;;6112008;23;21011;-78
2022/12/12 00:29:18;;;;;;;29.48;16.52;;;-0.20;1.00;;;;;;6123981;23;20241;-80
2022/12/12 00:31:45;;;;;;;29.38;16.08;;;-0.20;1.00;;;;;;6138306;23;20224;-81
2022/12/12 00:34:12;;;;;;;31.10;17.00;;;-0.30;1.00;;;;;;6120877;23;20213;-78
2022/12/12 00:36:39;;;;;;;28.70;16.40;;;-0.30;1.00;;;;;;6134051;23;20284;-79
2022/12/12 00:39:07;;;;;;;28.35;17.90;;;-0.30;1.00;;;;;;6134026;23;20193;-79
2022/12/12 00:41:34;;;;;;;30.35;16.98;;;-0.30;1.00;;;;;;6130821;23;20244;-79
2022/12/12 00:44:02;;;;;;;32.00;18.20;;;-0.30;1.00;;;;;;6122179;23;20219;-80
2022/12/12 00:46:29;;;;;;;33.53;18.65;;;-0.30;1.00;;;;;;6132854;23;20220;-82
2022/12/12 00:48:58;;;;;;;28.77;17.40;;;-0.30;1.00;;;;;;6132686;23;20232;-77
2022/12/12 00:51:28;;;;;;;29.42;16.17;;;-0.30;1.00;;;;;;6134419;23;20223;-77
2022/12/12 00:53:55;;;;;;;31.60;17.65;;;-0.30;1.00;;;;;;6133829;23;20862;-81
2022/12/12 00:56:23;;;;;;;29.58;17.38;;;-0.20;1.00;;;;;;6130456;23;21031;-79
2022/12/12 00:58:51;;;;;;;28.63;15.90;;;-0.20;1.00;;;;;;6134455;23;21039;-80
2022/12/12 01:01:23;;;;;;;28.63;16.75;;;-0.20;1.00;;;;;;6129901;23;20296;-80
2022/12/12 01:03:51;;;;;;;34.08;17.20;;;-0.20;1.00;;;;;;6132606;23;20303;-80
2022/12/12 01:06:18;;;;;;;34.22;18.30;;;-0.20;1.00;;;;;;6117315;23;20967;-81
2022/12/12 01:08:45;;;;;;;33.63;18.08;;;-0.20;1.00;;;;;;6132030;23;20215;-81
2022/12/12 01:11:13;;;;;;;30.55;17.73;;;-0.20;1.00;;;;;;6131618;23;20212;-79
2022/12/12 01:13:42;;;;;;;29.70;16.80;;;-0.20;1.00;;;;;;6130128;23;20510;-80
2022/12/12 01:16:10;;;;;;;29.35;16.33;;;-0.20;1.00;;;;;;6118650;23;20213;-80
2022/12/12 01:18:43;;;;;;;28.85;16.02;;;-0.20;1.00;;;;;;6128585;23;20220;-81
2022/12/12 01:21:11;;;;;;;29.50;17.63;;;-0.20;1.00;;;;;;6120107;23;20936;-79
2022/12/12 01:23:40;;;;;;;32.40;17.50;;;-0.20;1.00;;;;;;6135750;23;20212;-80
2022/12/12 01:26:10;;;;;;;31.67;16.70;;;-0.20;1.00;;;;;;6136461;23;20935;-80
2022/12/12 01:28:41;;;;;;;31.45;17.52;;;-0.20;1.00;;;;;;6137145;23;20209;-78
2022/12/12 01:31:12;;;;;;;30.52;16.33;;;-0.20;1.00;;;;;;6137169;23;20217;-79
2022/12/12 01:33:45;;;;;;;29.13;16.80;;;-0.10;1.00;;;;;;6136468;23;20215;-78
2022/12/12 01:36:18;;;;;;;28.60;17.85;;;-0.20;1.00;;;;;;6137045;23;20249;-78
2022/12/12 01:38:47;;;;;;;37.70;19.35;;;-0.10;1.00;;;;;;6138443;23;20234;-81
2022/12/12 01:41:21;;;;;;;36.13;20.38;;;-0.10;1.00;;;;;;6138670;23;20291;-79
2022/12/12 01:43:48;;;;;;;37.42;20.50;;;-0.10;1.00;;;;;;6137214;23;20216;-80
2022/12/12 01:46:50;;;;;;;37.55;21.92;;;-0.10;1.00;;;;;;6138976;23;20294;-80
2022/12/12 01:49:24;;;;;;;35.50;20.10;;;0.00;1.00;;;;;;6137418;23;20371;-81
2022/12/12 01:51:59;;;;;;;34.03;19.77;;;0.00;1.00;;;;;;6139506;23;20897;-77
2022/12/12 01:54:31;;;;;;;27.38;17.80;;;0.10;1.00;;;;;;6105960;23;20222;-80
2022/12/12 01:57:00;;;;;;;34.47;17.75;;;0.20;1.00;;;;;;6119661;23;20213;-79
2022/12/12 01:59:29;;;;;;;29.65;16.35;;;0.20;1.00;;;;;;6105049;23;20202;-79
2022/12/12 02:01:56;;;;;;;32.00;16.33;;;0.10;1.00;;;;;;6125718;23;20217;-81
2022/12/12 02:04:27;;;;;;;27.27;15.98;;;0.20;1.00;;;;;;6131675;23;20308;-80
2022/12/12 02:06:56;;;;;;;27.02;15.93;;;0.10;1.00;;;;;;6134136;23;20969;-82
2022/12/12 02:09:27;;;;;;;32.72;15.95;;;0.10;1.00;;;;;;6131393;23;20284;-81
2022/12/12 02:11:58;;;;;;;25.48;15.50;;;0.10;1.00;;;;;;6135327;23;20903;-80
2022/12/12 02:14:31;;;;;;;32.03;15.35;;;0.10;1.00;;;;;;6133699;23;20253;-81
2022/12/12 02:17:28;;;;;;;30.60;14.70;;;0.10;1.00;;;;;;6139177;23;20753;-77
2022/12/12 02:20:29;;;;;;;25.48;14.10;;;0.10;1.00;;;;;;6137007;23;20233;-79
2022/12/12 02:23:26;;;;;;;28.02;14.65;;;0.20;1.00;;;;;;6137575;23;20217;-78
2022/12/12 02:26:23;;;;;;;28.17;14.98;;;0.20;1.00;;;;;;6103263;23;20306;-78
2022/12/12 02:29:13;;;;;;;29.10;15.05;;;0.20;1.00;;;;;;6098117;23;20222;-77
2022/12/12 02:31:55;;;;;;;27.55;14.80;;;0.30;1.00;;;;;;6136393;23;20252;-81
2022/12/12 02:34:33;;;;;;;31.00;15.68;;;0.30;1.00;;;;;;6136957;23;20217;-78
2022/12/12 02:37:07;;;;;;;26.35;13.75;;;0.40;1.00;;;;;;6134011;23;20556;-80
2022/12/12 02:39:46;;;;;;;26.08;15.23;;;0.40;1.00;;;;;;6135519;23;20217;-81
2022/12/12 02:42:22;;;;;;;29.67;15.07;;;0.40;1.00;;;;;;6134297;23;20228;-80
2022/12/12 02:44:56;;;;;;;29.98;15.75;;;0.40;1.00;;;;;;6135119;23;20223;-81
2022/12/12 02:47:32;;;;;;;28.98;16.30;;;0.40;1.00;;;;;;6134858;23;20278;-81
2022/12/12 02:50:04;;;;;;;28.33;15.57;;;0.40;1.00;;;;;;6135913;23;20220;-81
2022/12/12 02:52:32;;;;;;;30.50;16.50;;;0.40;1.00;;;;;;6136393;23;20231;-80
2022/12/12 02:54:59;;;;;;;29.70;14.70;;;0.40;1.00;;;;;;6134503;23;20300;-79
2022/12/12 02:57:31;;;;;;;26.75;16.00;;;0.40;1.00;;;;;;6137674;23;20218;-81
2022/12/12 03:00:04;;;;;;;26.15;15.05;;;0.40;1.00;;;;;;6138782;23;20213;-78
2022/12/12 03:07:45;;;;;;;30.10;17.40;;;0.40;1.00;;;;;;6133124;23;20223;-78
2022/12/12 03:08:47;;;;;;;26.02;14.70;;;0.50;1.00;;;;;;6134698;23;20216;-79
2022/12/12 03:11:21;;;;;;;26.33;15.05;;;0.50;1.00;;;;;;6134184;23;20994;-78
2022/12/12 03:13:54;;;;;;;28.75;16.02;;;0.60;1.00;;;;;;6132608;23;20225;-79
2022/12/12 03:16:27;;;;;;;29.17;15.07;;;0.60;1.00;;;;;;6132365;23;20218;-78
2022/12/12 03:19:13;;;;;;;30.27;15.27;;;0.70;1.00;;;;;;6134175;23;20218;-79
2022/12/12 03:21:48;;;;;;;28.10;16.20;;;0.70;1.00;;;;;;6134082;23;20217;-82
2022/12/12 03:27:56;;;;;;;29.85;17.13;;;0.90;1.00;;;;;;5947979;23;20221;-80
2022/12/12 03:33:39;;;;;;;26.23;14.73;;;0.90;1.00;;;;;;6063339;23;20816;-81
2022/12/12 03:36:26;;;;;;;29.27;16.48;;;0.90;1.00;;;;;;6110850;23;20237;-80
2022/12/12 03:38:58;;;;;;;28.55;15.90;;;0.90;1.00;;;;;;6136718;23;20720;-81
2022/12/12 03:41:32;;;;;;;28.52;15.15;;;1.00;1.00;;;;;;6136354;23;20692;-81
2022/12/12 03:44:05;;;;;;;34.58;15.95;;;1.00;1.00;;;;;;6123505;23;20213;-78
2022/12/12 03:46:41;;;;;;;27.40;15.75;;;1.00;1.00;;;;;;6135954;23;20199;-77
2022/12/12 03:49:16;;;;;;;30.67;16.98;;;1.00;1.00;;;;;;6123740;23;20240;-80
2022/12/12 03:51:51;;;;;;;28.75;15.63;;;1.00;1.00;;;;;;6139463;23;20722;-81
2022/12/12 03:54:27;;;;;;;29.38;15.55;;;1.10;1.00;;;;;;6119304;23;20718;-80
2022/12/12 03:56:59;;;;;;;28.52;15.18;;;1.10;1.00;;;;;;6103157;23;20219;-81
2022/12/12 03:59:37;;;;;;;27.13;14.48;;;1.00;1.00;;;;;;6123165;23;20221;-80
2022/12/12 04:02:17;;;;;;;26.00;14.80;;;1.00;1.00;;;;;;6135937;23;20228;-80
2022/12/12 04:04:52;;;;;;;23.52;13.95;;;1.10;1.00;;;;;;6082936;23;21160;-77
2022/12/12 04:07:25;;;;;;;28.73;15.68;;;1.10;1.00;;;;;;6133731;23;20920;-79
2022/12/12 04:13:02;;;;;;;25.73;15.43;;;1.10;1.00;;;;;;6135763;23;20645;-81
2022/12/12 04:15:48;;;;;;;26.75;14.90;;;1.00;1.00;;;;;;6134096;23;20217;-82
2022/12/12 04:18:33;;;;;;;25.83;14.40;;;1.00;1.00;;;;;;6140294;23;20300;-81
2022/12/12 04:24:14;;;;;;;27.35;14.65;;;1.10;1.00;;;;;;6139579;23;20208;-78
2022/12/12 04:26:51;;;;;;;24.88;13.45;;;1.20;1.00;;;;;;6133796;23;20201;-82
2022/12/12 04:29:50;;;;;;;26.30;14.05;;;1.20;1.00;;;;;;6140775;23;20294;-81
2022/12/12 04:32:24;;;;;;;27.00;13.60;;;1.30;1.00;;;;;;6139894;23;20242;-80
2022/12/12 04:34:55;;;;;;;27.98;14.20;;;1.20;1.00;;;;;;6139931;23;20222;-81
2022/12/12 04:37:29;;;;;;;22.40;12.65;;;1.20;1.00;;;;;;6142188;23;20209;-80
2022/12/12 04:40:05;;;;;;;25.10;13.63;;;1.20;1.00;;;;;;6141556;23;20240;-80
2022/12/12 04:42:38;;;;;;;25.30;15.38;;;1.20;1.00;;;;;;6139467;23;20220;-80
2022/12/12 04:45:09;;;;;;;26.83;14.98;;;1.20;1.00;;;;;;6138457;23;21124;-81
2022/12/12 04:47:37;;;;;;;26.98;14.85;;;1.20;1.00;;;;;;6124288;23;20692;-80
2022/12/12 04:50:16;;;;;;;27.65;14.23;;;1.20;1.00;;;;;;6137263;23;20659;-81
2022/12/12 04:52:45;;;;;;;23.40;12.98;;;1.20;1.00;;;;;;6143302;23;20217;-81
2022/12/12 04:55:26;;;;;;;25.38;13.70;;;1.20;1.00;;;;;;6137915;23;20213;-81
2022/12/12 04:57:58;;;;;;;22.92;12.80;;;1.30;1.00;;;;;;6134525;23;20225;-80
2022/12/12 05:00:36;;;;;;;22.17;12.18;;;1.20;1.00;;;;;;6144553;23;20259;-81
2022/12/12 05:03:16;;;;;;;24.17;13.73;;;1.30;1.00;;;;;;6146134;23;20213;-78
2022/12/12 05:05:58;;;;;;;23.23;13.70;;;1.30;1.00;;;;;;6130862;23;20218;-77
2022/12/12 05:08:40;;;;;;;25.85;12.35;;;1.30;1.00;;;;;;6131812;23;20225;-80
2022/12/12 05:11:09;;;;;;;22.90;12.75;;;1.30;1.00;;;;;;6132262;23;20245;-83
2022/12/12 05:14:10;;;;;;;21.63;11.85;;;1.20;1.00;;;;;;6121816;23;20221;-80
2022/12/12 05:19:39;;;;;;;23.33;13.10;;;1.20;1.00;;;;;;6123045;23;20240;-78
2022/12/12 05:22:38;;;;;;;;;;;;;;;;;;;;;
2022/12/12 05:25:10;;;;;;;21.58;13.38;;;1.20;1.00;;;;;;6112908;23;50769;-80
2022/12/12 05:27:47;;;;;;;19.73;12.07;;;1.30;1.00;;;;;;6093379;23;20230;-80
2022/12/12 05:30:38;;;;;;;17.35;11.38;;;1.30;1.00;;;;;;6095339;23;20205;-79
2022/12/12 05:33:08;;;;;;;22.13;12.05;;;1.30;1.00;;;;;;6100515;23;20228;-79
2022/12/12 05:35:40;;;;;;;17.42;11.32;;;1.30;1.00;;;;;;6110682;23;20257;-81
2022/12/12 05:38:08;;;;;;;18.23;10.38;;;1.30;1.00;;;;;;6140844;23;20214;-78
2022/12/12 05:40:40;;;;;;;16.00;10.38;;;1.40;1.00;;;;;;6136445;23;20213;-82
2022/12/12 05:43:10;;;;;;;23.38;12.93;;;1.40;1.00;;;;;;6138105;23;20225;-77
2022/12/12 05:45:39;;;;;;;24.00;13.10;;;1.30;1.00;;;;;;6132942;23;20214;-79
2022/12/12 05:48:06;;;;;;;19.65;12.00;;;1.30;1.00;;;;;;6134215;23;20218;-76
2022/12/12 05:50:35;;;;;;;19.30;11.50;;;1.20;1.00;;;;;;6133446;23;20221;-77
2022/12/12 05:53:04;;;;;;;22.23;12.75;;;1.30;1.00;;;;;;6133525;23;20254;-76
2022/12/12 05:55:31;;;;;;;19.77;11.90;;;1.20;1.00;;;;;;6133213;23;20217;-78
2022/12/12 05:58:04;;;;;;;24.45;15.57;;;1.20;1.00;;;;;;6132651;23;20854;-78
2022/12/12 06:00:37;;;;;;;27.33;17.38;;;1.20;1.00;;;;;;6134102;23;20249;-82
2022/12/12 06:03:04;;;;;;;27.10;17.48;;;1.20;1.00;;;;;;6142263;23;20229;-81
2022/12/12 06:05:32;;;;;;;22.85;13.70;;;1.20;1.00;;;;;;6139081;23;20375;-77
2022/12/12 06:08:00;;;;;;;20.77;13.77;;;1.20;1.00;;;;;;6142941;23;20238;-82
2022/12/12 06:10:27;;;;;;;20.60;11.90;;;1.20;1.00;;;;;;6136816;23;20217;-80
2022/12/12 06:12:57;;;;;;;15.68;10.63;;;1.20;1.00;;;;;;6144228;23;20210;-81
2022/12/12 06:16:16;;;;;;;15.23;9.30;;;1.20;1.00;;;;;;6123137;23;20268;-81
2022/12/12 06:18:57;;;;;;;13.13;7.60;;;1.20;1.00;;;;;;6088396;23;20258;-78
2022/12/12 06:21:30;;;;;;;17.08;8.40;;;1.20;1.00;;;;;;6134874;23;20243;-78
2022/12/12 06:23:59;;;;;;;15.43;8.80;;;1.20;1.00;;;;;;6139641;23;20209;-78
2022/12/12 06:26:29;;;;;;;12.32;7.25;;;1.30;1.00;;;;;;6122744;23;20269;-77
2022/12/12 06:29:02;;;;;;;14.55;8.23;;;1.30;1.00;;;;;;6123516;23;20218;-79
2022/12/12 06:31:38;;;;;;;16.63;8.60;;;1.40;1.00;;;;;;6134498;23;20229;-76
2022/12/12 06:34:15;;;;;;;13.88;8.45;;;1.40;1.00;;;;;;6144554;23;20206;-81
2022/12/12 06:36:53;;;;;;;14.23;7.15;;;1.40;1.00;;;;;;6147310;23;20245;-79
2022/12/12 06:39:21;;;;;;;15.00;7.57;;;1.30;1.00;;;;;;6143672;23;20224;-82
2022/12/12 06:41:52;;;;;;;13.68;6.70;;;1.30;1.00;;;;;;6143393;23;20228;-81
2022/12/12 06:44:21;;;;;;;13.30;7.50;;;1.40;1.00;;;;;;6139863;23;20204;-78
2022/12/12 06:46:53;;;;;;;12.77;7.50;;;1.40;1.00;;;;;;6148235;23;20193;-81
2022/12/12 06:49:50;;;;;;;14.07;8.35;;;1.40;1.00;;;;;;6131374;23;20210;-85
2022/12/12 06:52:43;;;;;;;11.10;6.70;;;1.50;1.00;;;;;;6126641;23;20218;-86
2022/12/12 06:55:22;;;;;;;11.25;6.47;;;1.40;1.00;;;;;;6123217;23;20213;-85
2022/12/12 06:57:54;;;;;;;14.10;8.00;;;1.40;1.00;;;;;;6094162;23;20213;-83
2022/12/12 07:00:23;;;;;;;11.18;6.70;;;1.40;1.00;;;;;;6119682;23;20198;-85
2022/12/12 07:02:50;;;;;;;11.35;6.80;;;1.50;1.00;;;;;;6122119;23;20222;-80
2022/12/12 07:05:28;;;;;;;12.63;7.40;;;1.40;1.00;;;;;;6114171;23;20226;-80
2022/12/12 07:08:03;;;;;;;12.65;7.45;;;1.50;1.00;;;;;;6113552;23;20254;-83
2022/12/12 07:10:44;;;;;;;;;;;;;;;;;;;;;
2022/12/12 07:13:12;;;;;;;12.07;7.13;;;1.50;1.00;;;;;;6114534;23;39927;-82
2022/12/12 07:15:48;;;;;;;13.15;8.05;;;1.50;1.00;;;;;;6117062;23;20213;-79
2022/12/12 07:18:23;;;;;;;13.43;7.82;;;1.60;1.00;;;;;;6119563;23;20243;-85
2022/12/12 07:20:52;;;;;;;12.35;7.28;;;1.60;1.00;;;;;;6109701;23;20277;-83
2022/12/12 07:26:53;;;;;;;19.55;11.82;;;1.60;1.00;;;;;;6126464;23;20309;-88
2022/12/12 07:29:30;;;;;;;14.80;8.95;;;1.50;1.00;;;;;;6119919;23;20358;-88
2022/12/12 07:32:10;;;;;;;12.60;7.68;;;1.60;1.00;;;;;;6118803;23;20219;-84
2022/12/12 07:34:57;;;;;;;11.82;7.38;;;1.40;1.00;;;;;;6106200;23;20218;-85
2022/12/12 07:37:31;;;;;;;10.30;6.70;;;1.40;1.00;;;;;;6113348;23;20257;-80
2022/12/12 07:40:14;;;;;;;11.57;7.13;;;1.50;1.00;;;;;;6115055;23;20214;-84
2022/12/12 07:42:43;;;;;;;12.68;7.15;;;1.50;1.00;;;;;;6083593;23;20274;-83
2022/12/12 07:45:20;;;;;;;11.23;7.18;;;1.50;1.00;;;;;;6088689;23;20559;-82
2022/12/12 07:47:52;;;;;;;11.55;7.15;;;1.60;1.00;;;;;;6064804;23;20218;-83
2022/12/12 07:50:23;;;;;;;12.35;7.95;;;1.50;1.00;;;;;;6118324;23;20218;-85
2022/12/12 07:52:55;;;;;;;12.27;7.80;;;1.50;1.00;;;;;;6098585;23;20202;-81
2022/12/12 07:55:27;;;;;;;11.30;7.47;;;1.50;1.00;;;;;;6118087;23;20219;-80
2022/12/12 07:58:02;;;;;;;13.07;7.15;;;1.50;1.00;;;;;;6118446;23;20272;-84
2022/12/12 08:00:31;;;;;;;12.20;7.22;;;1.50;1.00;;;;;;6103289;23;20199;-85
2022/12/12 08:03:24;;;;;;;11.95;8.00;;;1.60;1.00;;;;;;6124268;23;20233;-86
2022/12/12 08:05:54;;;;;;;12.82;7.13;;;1.60;1.00;;;;;;6108583;23;20205;-85
2022/12/12 08:08:42;;;;;;;11.15;6.65;;;1.60;1.00;;;;;;6134933;23;20246;-83
2022/12/12 08:11:21;;;;;;;13.30;7.63;;;1.60;1.00;;;;;;6104323;23;20241;-85
2022/12/12 08:13:54;;;;;;;13.23;8.25;;;1.50;1.00;;;;;;6117390;23;20211;-85
2022/12/12 08:19:39;;;;;;;12.15;7.80;;;1.50;1.00;;;;;;6102560;23;20217;-86
2022/12/12 08:22:19;;;;;;;10.63;6.47;;;1.60;1.00;;;;;;6117055;23;20220;-81
2022/12/12 08:24:56;;;;;;;15.25;7.80;;;1.60;1.00;;;;;;6103699;23;20225;-86
2022/12/12 08:27:27;;;;;;;12.20;7.05;;;1.60;1.00;;;;;;6101359;23;20286;-83
2022/12/12 08:30:19;;;;;;;;;;;;;;;;;;;;;
2022/12/12 08:35:31;;;;;;;12.38;7.43;;;1.50;1.00;;;;;;6083321;23;20214;-83
2022/12/12 08:38:17;;;;;;;19.05;8.50;;;1.60;1.00;;;;;;6110665;23;20239;-85
2022/12/12 08:40:48;;;;;;;16.75;9.98;;;1.60;1.00;;;;;;6108551;23;20202;-81
2022/12/12 08:43:16;;;;;;;11.65;7.03;;;1.60;1.00;;;;;;6112866;23;20251;-85
2022/12/12 08:46:06;;;;;;;11.77;6.63;;;1.60;1.00;;;;;;6105129;23;20204;-83
2022/12/12 08:48:45;;;;;;;12.75;7.75;;;1.50;1.00;;;;;;6105239;23;20214;-84
2022/12/12 08:51:18;;;;;;;12.55;7.45;;;1.50;1.00;;;;;;6116894;23;20222;-85
2022/12/12 08:53:55;;;;;;;12.30;7.35;;;1.60;1.00;;;;;;6104017;23;20218;-82
2022/12/12 08:56:26;;;;;;;13.07;7.47;;;1.60;1.00;;;;;;6100859;23;20218;-82
2022/12/12 08:58:55;;;;;;;10.90;7.05;;;1.70;1.00;;;;;;6120958;23;20210;-80
2022/12/12 09:01:47;;;;;;;11.20;7.50;;;1.60;1.00;;;;;;6115210;23;20239;-79
2022/12/12 09:04:17;;;;;;;12.07;6.72;;;1.60;1.00;;;;;;6109333;23;20219;-83
2022/12/12 09:06:45;;;;;;;12.10;7.18;;;1.60;1.00;;;;;;6091316;23;20292;-78
2022/12/12 09:09:14;;;;;;;11.60;7.38;;;1.60;1.00;;;;;;6112006;23;20245;-79
2022/12/12 09:11:46;;;;;;;11.07;7.00;;;1.60;1.00;;;;;;6107051;23;20206;-81
2022/12/12 09:14:19;;;;;;;16.15;8.48;;;1.70;1.00;;;;;;6109797;23;20225;-81
2022/12/12 09:16:53;;;;;;;10.75;6.25;;;1.70;1.00;;;;;;6101304;23;20222;-80
2022/12/12 09:19:21;;;;;;;15.05;8.38;;;1.60;1.00;;;;;;6109718;23;20217;-80
2022/12/12 09:21:50;;;;;;;10.43;6.07;;;1.60;1.00;;;;;;6094168;23;20243;-79
2022/12/12 09:24:28;;;;;;;10.82;6.70;;;1.40;1.00;;;;;;6085733;23;20215;-81
2022/12/12 09:27:03;;;;;;;10.70;6.00;;;1.40;1.00;;;;;;6099771;23;20217;-78
2022/12/12 09:29:30;;;;;;;10.18;6.22;;;1.50;1.00;;;;;;6077010;23;20292;-78
2022/12/12 09:32:05;;;;;;;10.80;6.32;;;1.50;1.00;;;;;;6109780;23;20233;-79
2022/12/12 09:34:39;;;;;;;10.90;6.50;;;1.50;1.00;;;;;;6108494;23;20219;-79
2022/12/12 09:37:13;;;;;;;11.70;6.35;;;1.50;1.00;;;;;;6110490;23;20242;-81
2022/12/12 09:39:40;;;;;;;11.18;6.93;;;1.60;1.00;;;;;;6110188;23;20297;-85
2022/12/12 09:42:22;;;;;;;13.20;7.25;;;1.60;1.00;;;;;;6117492;23;20226;-83
2022/12/12 09:44:49;;;;;;;11.43;6.60;;;1.70;1.00;;;;;;6075976;23;20224;-82
2022/12/12 09:47:28;;;;;;;12.70;7.00;;;1.80;1.00;;;;;;6114794;23;20208;-82
2022/12/12 09:50:28;;;;;;;13.68;6.95;;;1.90;1.00;;;;;;6131086;23;20222;-78
2022/12/12 09:53:09;;;;;;;12.27;6.68;;;1.90;1.00;;;;;;6097852;23;20223;-78
2022/12/12 10:01:16;;;;;;;10.90;6.10;;;1.80;1.00;;;;;;6052145;22;20208;-79
2022/12/12 10:04:16;;;;;;;9.95;5.80;;;1.70;1.00;;;;;;6070524;23;20211;-78
2022/12/12 10:12:27;;;;;;;11.25;6.10;;;1.70;1.00;;;;;;6078466;23;20219;-84
2022/12/12 10:15:01;;;;;;;11.30;5.90;;;2.10;1.00;;;;;;6095494;23;20987;-83
2022/12/12 10:17:34;;;;;;;11.30;6.20;;;3.00;1.00;;;;;;6063924;23;20215;-81
2022/12/12 10:20:17;;;;;;;10.95;6.07;;;3.40;1.00;;;;;;6097466;23;20280;-78
2022/12/12 10:23:10;;;;;;;10.30;6.53;;;3.60;1.00;;;;;;6088068;23;20231;-84
2022/12/12 10:25:48;;;;;;;10.10;5.68;;;3.70;1.00;;;;;;6087879;23;20668;-81
2022/12/12 10:28:17;;;;;;;12.65;6.72;;;3.60;1.00;;;;;;6081092;23;20237;-80
2022/12/12 10:31:12;;;;;;;9.32;5.97;;;3.70;1.00;;;;;;6083884;23;20294;-77
2022/12/12 10:33:57;;;;;;;9.95;5.47;;;4.00;1.00;;;;;;6079439;23;20220;-77
2022/12/12 10:37:00;;;;;;;10.85;6.13;;;4.00;1.00;;;;;;6087012;23;20216;-82
2022/12/12 10:39:40;;;;;;;10.82;5.80;;;4.00;1.00;;;;;;6076722;23;20222;-79
2022/12/12 10:42:20;;;;;;;10.68;6.10;;;4.30;1.00;;;;;;6086785;23;20451;-81
2022/12/12 10:45:08;;;;;;;9.75;5.03;;;5.10;1.00;;;;;;6079897;23;20295;-83
2022/12/12 10:47:37;;;;;;;8.65;4.40;;;5.60;1.00;;;;;;6085648;23;20692;-83
2022/12/12 10:50:34;;;;;;;8.07;4.65;;;5.80;1.00;;;;;;6087076;23;20240;-84
2022/12/12 10:53:07;;;;;;;8.45;4.57;;;5.70;1.00;;;;;;6084588;23;20220;-84
2022/12/12 10:58:37;;;;;;;8.80;4.68;;;5.90;1.00;;;;;;6083394;23;20225;-84
2022/12/12 11:01:13;;;;;;;7.45;3.85;;;5.90;1.00;;;;;;6084475;23;20209;-85
2022/12/12 11:03:45;;;;;;;7.32;3.67;;;6.10;1.00;;;;;;6078745;23;20220;-81
2022/12/12 11:06:30;;;;;;;8.15;4.53;;;6.20;1.00;;;;;;6074072;23;20219;-81
2022/12/12 11:09:06;;;;;;;7.50;4.10;;;6.60;1.00;;;;;;6074655;23;20211;-79
2022/12/12 11:11:39;;;;;;;7.82;4.10;;;7.40;1.00;;;;;;6105375;23;20270;-79
2022/12/12 11:14:23;;;;;;;8.40;4.80;;;7.70;1.00;;;;;;6114791;23;20219;-83
2022/12/12 11:16:57;;;;;;;7.60;4.20;;;7.50;1.00;;;;;;6109540;23;20223;-79
2022/12/12 11:19:38;;;;;;;7.82;3.80;;;7.30;1.00;;;;;;6108873;23;20818;-81
2022/12/12 11:22:29;;;;;;;8.57;5.13;;;7.00;1.00;;;;;;6113471;23;20246;-81
2022/12/12 11:24:59;;;;;;;8.48;4.25;;;6.70;1.00;;;;;;6118624;23;20220;-79
2022/12/12 11:27:31;;;;;;;7.32;4.45;;;6.60;1.00;;;;;;6116234;23;20207;-79
2022/12/12 11:30:03;;;;;;;8.00;4.32;;;6.50;1.00;;;;;;6109435;23;20188;-82
2022/12/12 11:32:38;;;;;;;7.68;3.88;;;6.50;1.00;;;;;;6087104;23;20223;-79
2022/12/12 11:35:21;;;;;;;9.45;4.70;;;6.50;1.00;;;;;;6092435;23;20219;-81
2022/12/12 11:37:57;;;;;;;9.98;4.65;;;6.10;1.00;;;;;;6122456;23;20212;-83
2022/12/12 11:40:28;;;;;;;8.02;4.65;;;6.10;1.00;;;;;;6082410;23;20290;-78
2022/12/12 11:43:13;;;;;;;8.75;5.10;;;6.40;1.00;;;;;;6132499;23;20200;-83
2022/12/12 11:45:43;;;;;;;7.22;4.07;;;6.50;1.00;;;;;;6107997;23;20223;-84
2022/12/12 11:48:36;;;;;;;8.88;5.95;;;6.20;1.00;;;;;;6109503;23;20219;-83
2022/12/12 11:54:52;;;;;;;9.05;5.20;;;6.20;1.00;;;;;;6100515;23;21011;-81
2022/12/12 11:57:51;;;;;;;8.07;4.70;;;6.60;1.00;;;;;;6124631;23;20218;-81
2022/12/12 12:00:25;;;;;;;11.07;5.60;;;6.20;1.00;;;;;;6082367;23;20793;-80
2022/12/12 12:03:18;;;;;;;9.40;5.25;;;5.40;1.00;;;;;;6173676;23;20230;-81
2022/12/12 12:06:00;;;;;;;8.05;4.65;;;4.70;1.00;;;;;;6142120;23;20340;-80
2022/12/12 12:08:49;;;;;;;10.00;6.45;;;4.10;1.00;;;;;;6154134;23;20346;-80
2022/12/12 12:11:29;;;;;;;10.73;6.00;;;3.50;1.00;;;;;;6149919;23;20218;-78
2022/12/12 12:14:28;;;;;;;10.77;5.88;;;3.10;1.00;;;;;;6131279;23;20214;-81
2022/12/12 12:17:08;;;;;;;11.23;6.75;;;2.70;1.00;;;;;;6170073;23;20246;-81
2022/12/12 12:19:47;;;;;;;10.48;6.05;;;2.50;1.00;;;;;;6113056;23;20217;-80
2022/12/12 12:22:39;;;;;;;10.60;6.60;;;2.30;1.00;;;;;;6117376;23;20203;-81
2022/12/12 12:25:42;;;;;;;11.45;6.70;;;2.10;1.00;;;;;;6108089;23;20213;-83
2022/12/12 12:28:49;;;;;;;12.48;7.97;;;2.00;1.00;;;;;;6103294;23;20244;-84
2022/12/12 12:31:48;;;;;;;13.35;8.10;;;1.90;1.00;;;;;;6104303;23;20217;-86
2022/12/12 12:34:39;;;;;;;14.52;8.23;;;1.80;1.00;;;;;;6136581;23;20204;-83
2022/12/12 12:37:28;;;;;;;14.02;9.43;;;1.70;1.00;;;;;;6163708;23;20881;-80
2022/12/12 12:40:31;;;;;;;14.82;7.20;;;1.50;1.00;;;;;;6151255;23;20215;-84
2022/12/12 12:46:59;;;;;;;12.48;6.68;;;1.20;1.00;;;;;;6138439;23;20221;-85
2022/12/12 12:49:58;;;;;;;9.43;5.53;;;1.10;1.00;;;;;;6103584;23;20210;-82
2022/12/12 12:56:00;;;;;;;11.55;5.72;;;1.10;1.00;;;;;;6102398;23;20246;-83
2022/12/12 12:58:58;;;;;;;9.50;5.00;;;1.00;1.00;;;;;;6118676;23;20198;-83
2022/12/12 13:01:48;;;;;;;10.98;6.32;;;1.00;1.00;;;;;;6118362;23;20216;-86
2022/12/12 13:04:28;;;;;;;9.98;5.70;;;0.90;1.00;;;;;;6125170;23;20201;-84
2022/12/12 13:13:51;;;;;;;12.65;7.30;;;0.80;1.00;;;;;;5126677;27;20242;-84
2022/12/12 13:16:30;;;;;;;9.30;4.80;;;0.80;1.00;;;;;;5095987;27;20239;-80
2022/12/12 13:19:13;;;;;;;9.18;4.90;;;0.80;1.00;;;;;;5120663;27;20233;-85
2022/12/12 13:22:13;;;;;;;9.95;5.25;;;0.70;1.00;;;;;;5114397;27;20323;-83
2022/12/12 13:24:54;;;;;;;11.00;6.00;;;0.70;1.00;;;;;;5112748;27;21009;-84
2022/12/12 13:27:39;;;;;;;9.73;4.70;;;0.70;1.00;;;;;;5113069;27;20255;-79
2022/12/12 13:30:20;;;;;;;9.00;4.88;;;0.70;1.00;;;;;;5095014;27;20205;-84
2022/12/12 13:33:19;;;;;;;11.10;5.18;;;0.70;1.00;;;;;;5104127;27;20245;-85
2022/12/12 13:36:16;;;;;;;9.10;5.50;;;0.80;1.00;;;;;;5265611;22;20241;-83
2022/12/12 13:39:00;;;;;;;8.98;5.40;;;0.80;1.00;;;;;;5099417;27;20231;-79
2022/12/12 13:42:00;;;;;;;11.55;5.63;;;0.80;1.00;;;;;;5090610;27;20236;-85
2022/12/12 13:44:50;;;;;;;10.75;6.22;;;0.80;1.00;;;;;;5110628;27;20250;-85
2022/12/12 13:47:59;;;;;;;9.30;5.15;;;0.80;1.00;;;;;;5088125;27;20219;-85
2022/12/12 13:50:39;;;;;;;11.05;6.07;;;0.70;1.00;;;;;;5116793;27;20243;-85
2022/12/12 13:53:20;;;;;;;9.35;4.97;;;0.70;1.00;;;;;;5093027;27;20297;-85
2022/12/12 13:56:09;;;;;;;10.27;6.05;;;0.70;1.00;;;;;;5120487;27;20238;-84
2022/12/12 13:58:40;;;;;;;9.50;5.00;;;0.70;1.00;;;;;;5101185;27;20250;-84
2022/12/12 14:01:54;;;;;;;9.63;5.05;;;0.70;1.00;;;;;;5108703;27;20269;-88
2022/12/12 14:04:59;;;;;;;9.00;4.68;;;0.60;1.00;;;;;;5112190;27;20227;-88
2022/12/12 14:08:09;;;;;;;;;;;;;;;;;;;;;
2022/12/12 14:20:18;;;;;;;;;;;;;;;;;;;;;
2022/12/12 14:25:42;;;;;;;12.75;6.72;;;0.30;1.00;;;;;;5337627;22;21539;-85
2022/12/12 14:32:12;;;;;;;12.40;6.80;;;0.40;1.00;;;;;;5037728;28;20296;-81
2022/12/12 14:34:55;;;;;;;11.02;7.22;;;0.30;1.00;;;;;;5068011;28;20236;-83
2022/12/12 14:37:55;;;;;;;12.95;7.57;;;0.20;1.00;;;;;;5065806;28;20269;-82
2022/12/12 14:40:45;;;;;;;12.02;7.05;;;0.10;1.00;;;;;;5053183;28;20223;-83
2022/12/12 14:43:31;;;;;;;13.88;9.27;;;0.10;1.00;;;;;;5083712;28;20252;-77
2022/12/12 14:46:03;;;;;;;12.43;7.22;;;0.10;1.00;;;;;;5087554;28;20311;-82
2022/12/12 14:48:37;;;;;;;15.30;9.30;;;0.10;1.00;;;;;;5073294;28;20239;-82
2022/12/12 14:51:39;;;;;;;15.05;9.40;;;0.20;1.00;;;;;;5075273;28;20333;-82
2022/12/12 14:54:16;;;;;;;16.55;10.80;;;0.20;1.00;;;;;;5077520;28;20235;-83
2022/12/12 14:57:01;;;;;;;13.57;8.45;;;0.10;1.00;;;;;;5079113;28;20244;-84
2022/12/12 15:02:51;;;;;;;20.15;10.88;;;0.00;1.00;;;;;;5072297;28;20247;-78
2022/12/12 15:05:45;;;;;;;17.23;10.45;;;0.00;1.00;;;;;;5079985;28;20258;-82
2022/12/12 15:08:25;;;;;;;17.20;10.65;;;0.10;1.00;;;;;;5078934;28;20990;-79
2022/12/12 15:10:58;;;;;;;14.10;9.40;;;0.10;1.00;;;;;;5072488;28;22238;-80
2022/12/12 15:13:30;;;;;;;15.45;9.13;;;0.10;1.00;;;;;;5080640;28;20231;-80